Time;durP1;ratioP1;P1;durP2;ratioP2;P2;SDS_P1;SDS_P2;PMS_P1;PMS_P2;Temp;Humidity;BMP_temperature;BMP_pressure;BME280_temperature;BME280_humidity;BME280_pressure;Samples;Min_cycle;Max_cycle;Signal;HPM_P1;HPM_P2
2023/07/23 04:00:38;;;;;;;4.17;3.77;;;14.70;99.90;;;;;;5770804;23;20524;-69
2023/07/23 04:03:05;;;;;;;3.97;3.67;;;14.70;99.90;;;;;;4932753;29;20504;-68
2023/07/23 04:05:31;;;;;;;6.50;6.00;;;14.70;99.90;;;;;;4934878;29;20980;-68
2023/07/23 04:07:58;;;;;;;3.60;3.03;;;14.70;99.90;;;;;;4935940;29;20960;-68
2023/07/23 04:10:25;;;;;;;5.93;5.10;;;14.70;99.90;;;;;;4933656;29;20948;-68
2023/07/23 04:12:51;;;;;;;10.57;5.30;;;14.70;99.90;;;;;;4916862;29;20490;-68
2023/07/23 04:15:18;;;;;;;9.73;4.87;;;14.80;99.90;;;;;;4916888;29;20471;-68
2023/07/23 04:17:46;;;;;;;5.30;3.70;;;14.70;99.90;;;;;;4916708;29;20578;-69
2023/07/23 04:20:13;;;;;;;4.73;4.30;;;14.80;99.90;;;;;;4915761;29;20852;-68
2023/07/23 04:22:40;;;;;;;4.37;4.17;;;14.80;99.90;;;;;;4917020;29;20875;-68
2023/07/23 04:25:07;;;;;;;5.83;5.17;;;14.80;99.90;;;;;;4916272;29;20861;-67
2023/07/23 04:27:34;;;;;;;4.33;4.03;;;14.80;99.90;;;;;;4916639;29;20470;-68
2023/07/23 04:30:00;;;;;;;3.93;3.63;;;14.80;99.90;;;;;;4916517;29;20470;-68
2023/07/23 04:32:27;;;;;;;5.10;3.60;;;14.80;99.90;;;;;;4916207;29;20494;-69
2023/07/23 04:34:55;;;;;;;5.27;4.83;;;14.80;99.90;;;;;;4915645;29;20581;-67
2023/07/23 04:37:22;;;;;;;3.80;3.60;;;14.80;99.90;;;;;;4916636;29;20517;-68
2023/07/23 04:39:49;;;;;;;4.83;3.17;;;14.90;99.90;;;;;;4910705;29;20474;-67
2023/07/23 04:42:15;;;;;;;4.80;4.40;;;14.90;99.90;;;;;;4916382;29;20483;-68
2023/07/23 04:44:42;;;;;;;7.53;5.47;;;14.90;99.90;;;;;;4916165;29;20546;-68
2023/07/23 04:47:09;;;;;;;8.40;4.77;;;14.90;99.90;;;;;;4916793;29;20470;-67
2023/07/23 04:49:35;;;;;;;8.60;3.67;;;14.90;99.90;;;;;;4915563;29;20482;-67
2023/07/23 04:52:04;;;;;;;6.20;5.60;;;15.00;99.90;;;;;;4916383;29;20553;-68
2023/07/23 04:54:30;;;;;;;6.87;3.97;;;15.00;99.90;;;;;;4915798;29;20502;-67
2023/07/23 04:56:57;;;;;;;8.80;4.73;;;15.00;99.90;;;;;;4916145;29;20470;-67
2023/07/23 04:59:24;;;;;;;5.20;4.70;;;15.10;99.90;;;;;;4915975;29;20473;-69
2023/07/23 05:01:50;;;;;;;4.80;4.30;;;15.10;99.90;;;;;;4915586;29;20502;-67
2023/07/23 05:04:17;;;;;;;5.17;4.03;;;15.10;99.90;;;;;;4915231;29;20466;-67
2023/07/23 05:06:44;;;;;;;4.97;4.57;;;15.10;99.90;;;;;;4916162;29;20482;-68
2023/07/23 05:09:12;;;;;;;4.97;4.63;;;15.10;99.90;;;;;;4915700;29;20498;-69
2023/07/23 05:11:38;;;;;;;7.23;4.03;;;15.10;99.90;;;;;;4915840;29;20522;-68
2023/07/23 05:14:05;;;;;;;4.27;4.03;;;15.10;99.90;;;;;;4915258;29;20486;-68
2023/07/23 05:16:32;;;;;;;3.90;3.63;;;15.10;99.90;;;;;;4915692;29;20502;-67
2023/07/23 05:18:58;;;;;;;5.30;4.90;;;15.10;99.90;;;;;;4915941;29;20545;-67
2023/07/23 05:21:25;;;;;;;5.57;3.97;;;15.20;99.90;;;;;;4914962;29;20634;-67
2023/07/23 05:23:52;;;;;;;3.57;3.33;;;15.20;99.90;;;;;;4915621;29;20466;-67
2023/07/23 05:26:20;;;;;;;6.80;4.00;;;15.20;99.90;;;;;;4915499;29;20525;-67
2023/07/23 05:28:46;;;;;;;5.60;3.57;;;15.20;99.90;;;;;;4915455;29;20830;-67
2023/07/23 05:31:13;;;;;;;4.87;3.80;;;15.20;99.90;;;;;;4915200;29;20490;-67
2023/07/23 05:33:41;;;;;;;6.00;3.70;;;15.30;99.90;;;;;;4915342;29;20494;-68
2023/07/23 05:36:07;;;;;;;4.40;2.43;;;15.30;99.90;;;;;;4914554;29;20962;-67
2023/07/23 05:38:34;;;;;;;5.10;3.93;;;15.40;99.90;;;;;;4915421;29;20477;-67
2023/07/23 05:41:01;;;;;;;5.30;4.70;;;15.40;99.90;;;;;;4914839;29;20489;-68
2023/07/23 05:43:30;;;;;;;4.17;3.93;;;15.40;99.90;;;;;;4915463;29;20847;-68
2023/07/23 05:45:57;;;;;;;4.83;4.23;;;15.40;99.90;;;;;;4914985;29;20558;-67
2023/07/23 05:48:24;;;;;;;3.13;3.00;;;15.50;99.90;;;;;;4914842;29;20466;-67
2023/07/23 05:50:51;;;;;;;4.60;3.83;;;15.50;99.90;;;;;;4914344;29;20550;-67
2023/07/23 05:53:17;;;;;;;3.93;3.63;;;15.50;99.90;;;;;;4915020;29;20499;-68
2023/07/23 05:55:44;;;;;;;6.00;3.50;;;15.50;99.90;;;;;;4914606;29;20991;-67
2023/07/23 05:58:11;;;;;;;9.93;3.30;;;15.50;99.90;;;;;;4915418;29;20466;-67
2023/07/23 06:00:39;;;;;;;4.20;3.67;;;15.50;99.90;;;;;;4914751;29;20494;-68
2023/07/23 06:03:06;;;;;;;9.10;2.73;;;15.60;99.90;;;;;;4915116;29;20820;-69
2023/07/23 06:05:32;;;;;;;3.40;3.10;;;15.60;99.90;;;;;;4913897;29;20470;-68
2023/07/23 06:07:59;;;;;;;3.30;2.80;;;15.60;99.90;;;;;;4914813;29;20953;-68
2023/07/23 06:10:26;;;;;;;4.30;3.93;;;15.50;99.90;;;;;;4914448;29;20474;-68
2023/07/23 06:12:52;;;;;;;3.90;3.70;;;15.50;99.90;;;;;;4914993;29;20467;-68
2023/07/23 06:15:20;;;;;;;5.07;4.67;;;15.50;99.90;;;;;;4914549;29;20549;-67
2023/07/23 06:17:48;;;;;;;6.23;5.30;;;15.50;99.90;;;;;;4914801;29;21025;-68
2023/07/23 06:20:15;;;;;;;3.83;3.20;;;15.50;99.90;;;;;;4913829;29;20926;-67
2023/07/23 06:22:42;;;;;;;3.53;2.20;;;15.50;99.90;;;;;;4914508;29;20629;-67
2023/07/23 06:25:09;;;;;;;3.20;2.73;;;15.50;99.90;;;;;;4913909;29;20462;-69
2023/07/23 06:27:36;;;;;;;2.63;2.47;;;15.50;99.90;;;;;;4914600;29;20470;-67
2023/07/23 06:30:03;;;;;;;3.93;3.63;;;15.50;99.90;;;;;;4914397;29;20542;-68
2023/07/23 06:32:30;;;;;;;4.37;3.80;;;15.50;99.90;;;;;;4914426;29;20597;-67
2023/07/23 06:34:58;;;;;;;3.23;3.07;;;15.50;99.90;;;;;;4913151;29;20526;-69
2023/07/23 06:37:24;;;;;;;4.40;4.20;;;15.50;99.90;;;;;;4914230;29;21021;-69
2023/07/23 06:39:51;;;;;;;2.87;2.63;;;15.50;99.90;;;;;;4909398;29;20471;-67
2023/07/23 06:42:18;;;;;;;4.93;4.60;;;15.60;99.90;;;;;;4914288;29;20490;-68
2023/07/23 06:44:45;;;;;;;5.40;3.67;;;15.60;99.90;;;;;;4913857;29;20981;-68
2023/07/23 06:47:13;;;;;;;7.43;5.73;;;15.60;99.90;;;;;;4914282;29;20466;-67
2023/07/23 06:49:40;;;;;;;3.83;3.53;;;15.70;99.90;;;;;;4913541;29;20534;-67
2023/07/23 06:52:08;;;;;;;3.30;3.00;;;15.60;99.90;;;;;;4913986;29;20490;-68
2023/07/23 06:54:38;;;;;;;4.73;4.43;;;15.70;99.90;;;;;;4913983;29;20542;-68
2023/07/23 06:57:05;;;;;;;4.37;4.00;;;15.70;99.90;;;;;;4914249;29;20857;-68
2023/07/23 06:59:32;;;;;;;3.73;3.43;;;15.70;99.90;;;;;;4914111;29;20501;-68
2023/07/23 07:01:59;;;;;;;6.67;5.30;;;15.70;99.90;;;;;;4917701;29;20891;-69
2023/07/23 07:04:25;;;;;;;4.43;4.13;;;15.70;99.90;;;;;;4917184;29;20470;-68
2023/07/23 07:06:52;;;;;;;3.30;2.87;;;15.70;99.90;;;;;;4917822;29;20473;-67
2023/07/23 07:09:20;;;;;;;3.80;3.37;;;15.70;99.90;;;;;;4918058;29;20466;-67
2023/07/23 07:11:47;;;;;;;3.90;3.60;;;15.70;99.90;;;;;;4917990;29;20490;-67
2023/07/23 07:14:14;;;;;;;4.23;3.83;;;15.80;99.90;;;;;;4917704;29;20593;-68
2023/07/23 07:16:40;;;;;;;3.57;3.40;;;15.80;99.90;;;;;;4918083;29;20489;-67
2023/07/23 07:19:07;;;;;;;4.30;4.00;;;15.90;99.90;;;;;;4917239;29;20537;-68
2023/07/23 07:21:33;;;;;;;4.43;4.13;;;16.00;99.90;;;;;;4916525;29;20505;-68
2023/07/23 07:24:00;;;;;;;3.80;3.60;;;16.10;99.90;;;;;;4917261;29;20474;-68
2023/07/23 07:26:28;;;;;;;5.13;4.30;;;16.10;99.90;;;;;;4917073;29;20478;-67
2023/07/23 07:28:55;;;;;;;4.60;4.30;;;16.20;99.90;;;;;;4917157;29;20493;-67
2023/07/23 07:31:22;;;;;;;4.50;4.17;;;16.30;99.90;;;;;;4917039;29;20490;-68
2023/07/23 07:33:48;;;;;;;3.23;3.03;;;16.30;99.90;;;;;;4916955;29;20545;-68
2023/07/23 07:36:15;;;;;;;4.93;4.30;;;16.30;99.90;;;;;;4916201;29;20887;-68
2023/07/23 07:38:42;;;;;;;5.50;4.90;;;16.40;99.90;;;;;;4914363;29;20471;-67
2023/07/23 07:41:08;;;;;;;4.73;4.23;;;16.40;99.90;;;;;;4915050;29;21040;-68
2023/07/23 07:43:36;;;;;;;9.00;4.40;;;16.50;99.90;;;;;;4917111;29;20497;-68
2023/07/23 07:46:05;;;;;;;5.07;4.63;;;16.50;99.90;;;;;;4916722;29;20533;-67
2023/07/23 07:48:33;;;;;;;3.47;3.13;;;16.50;99.90;;;;;;4916853;29;20522;-68
2023/07/23 07:51:00;;;;;;;5.23;4.60;;;16.50;99.90;;;;;;4916182;29;20521;-67
2023/07/23 07:53:27;;;;;;;4.00;3.33;;;16.50;99.90;;;;;;4916809;29;20501;-67
2023/07/23 07:55:54;;;;;;;5.63;5.03;;;16.60;99.90;;;;;;4916381;29;20533;-68
2023/07/23 07:58:24;;;;;;;4.53;4.27;;;16.70;99.90;;;;;;4916713;29;20470;-68
2023/07/23 08:00:54;;;;;;;4.47;4.20;;;16.70;99.90;;;;;;4915967;29;20582;-67
2023/07/23 08:03:22;;;;;;;8.23;4.50;;;16.80;99.90;;;;;;4916640;29;20953;-68
2023/07/23 08:05:49;;;;;;;8.00;5.00;;;16.80;99.90;;;;;;4915405;29;20470;-67
2023/07/23 08:08:17;;;;;;;4.23;3.93;;;16.80;99.90;;;;;;4916211;29;20469;-68
2023/07/23 08:10:45;;;;;;;7.80;3.37;;;16.90;99.90;;;;;;4916352;29;20820;-68
2023/07/23 08:13:15;;;;;;;5.37;5.03;;;16.90;99.90;;;;;;4916351;29;20851;-67
2023/07/23 08:15:42;;;;;;;5.53;4.70;;;16.90;99.90;;;;;;4916035;29;20549;-67
2023/07/23 08:18:11;;;;;;;4.37;3.70;;;17.00;99.90;;;;;;4916174;29;20474;-68
2023/07/23 08:20:38;;;;;;;6.17;5.60;;;16.90;99.90;;;;;;4915309;29;20498;-68
2023/07/23 08:23:06;;;;;;;4.13;3.77;;;16.80;99.90;;;;;;4916027;29;20473;-69
2023/07/23 08:25:33;;;;;;;4.80;4.30;;;16.80;99.90;;;;;;4915761;29;20458;-68
2023/07/23 08:28:01;;;;;;;4.10;3.77;;;16.80;99.90;;;;;;4915608;29;20470;-67
2023/07/23 08:30:28;;;;;;;5.17;4.77;;;16.90;99.90;;;;;;4916054;29;20573;-67
2023/07/23 08:32:56;;;;;;;5.07;4.40;;;17.00;99.90;;;;;;4916095;29;20530;-67
2023/07/23 08:35:25;;;;;;;9.20;4.60;;;17.00;99.90;;;;;;4915045;29;20585;-67
2023/07/23 08:37:52;;;;;;;4.30;3.90;;;17.10;99.90;;;;;;4915727;29;20809;-68
2023/07/23 08:40:20;;;;;;;4.67;4.27;;;17.20;99.90;;;;;;4915531;29;20561;-66
2023/07/23 08:43:23;;;;;;;7.00;4.70;;;17.20;99.90;;;;;;4915904;29;20466;-67
2023/07/23 08:46:21;;;;;;;4.37;4.07;;;17.40;99.90;;;;;;4915710;29;20877;-67
2023/07/23 08:49:04;;;;;;;4.07;3.73;;;17.40;99.90;;;;;;4915553;29;20600;-68
2023/07/23 08:51:35;;;;;;;6.77;4.43;;;17.40;99.90;;;;;;4913345;29;20494;-68
2023/07/23 08:54:04;;;;;;;5.43;4.90;;;17.40;99.90;;;;;;4915444;29;20466;-68
2023/07/23 08:56:30;;;;;;;4.77;4.57;;;17.40;99.90;;;;;;4915461;29;20527;-68
2023/07/23 08:59:01;;;;;;;4.60;4.20;;;17.40;99.90;;;;;;4915738;29;20481;-68
2023/07/23 09:01:32;;;;;;;5.30;4.70;;;17.40;99.90;;;;;;4915121;29;20885;-67
2023/07/23 09:03:59;;;;;;;4.37;4.03;;;17.50;99.90;;;;;;4915416;29;20478;-68
2023/07/23 09:06:27;;;;;;;5.10;4.70;;;17.60;99.90;;;;;;4914818;29;20596;-68
2023/07/23 09:08:55;;;;;;;7.80;5.77;;;17.80;99.90;;;;;;4915302;29;20466;-67
2023/07/23 09:11:21;;;;;;;6.87;3.63;;;17.80;99.90;;;;;;4915014;29;20550;-68
2023/07/23 09:13:48;;;;;;;5.53;5.13;;;17.90;99.90;;;;;;4915193;29;20471;-68
2023/07/23 09:16:15;;;;;;;5.83;5.43;;;18.00;99.90;;;;;;4914976;29;20517;-68
2023/07/23 09:18:42;;;;;;;4.57;4.23;;;18.10;99.90;;;;;;4915200;29;20471;-67
2023/07/23 09:21:10;;;;;;;5.27;4.87;;;18.10;99.90;;;;;;4914279;29;20494;-67
2023/07/23 09:23:36;;;;;;;5.73;5.17;;;18.10;99.90;;;;;;4914334;29;20924;-68
2023/07/23 09:26:08;;;;;;;3.73;3.63;;;18.10;99.90;;;;;;4914631;29;20887;-67
2023/07/23 09:28:35;;;;;;;6.97;3.93;;;18.20;99.90;;;;;;4915085;29;20483;-68
2023/07/23 09:31:02;;;;;;;3.83;3.53;;;18.20;99.90;;;;;;4914605;29;20494;-68
2023/07/23 09:33:33;;;;;;;3.67;3.47;;;18.20;99.90;;;;;;4914595;29;20498;-68
2023/07/23 09:36:00;;;;;;;5.97;4.20;;;18.20;99.90;;;;;;4913779;29;20971;-68
2023/07/23 09:38:28;;;;;;;5.83;5.40;;;18.30;99.90;;;;;;4913717;29;20473;-67
2023/07/23 09:40:56;;;;;;;4.70;4.40;;;18.30;99.90;;;;;;4911488;29;20493;-68
2023/07/23 09:43:25;;;;;;;4.73;3.77;;;18.40;99.90;;;;;;4914468;29;20466;-67
2023/07/23 09:45:51;;;;;;;5.47;4.97;;;18.40;99.90;;;;;;4914110;29;20880;-68
2023/07/23 09:48:19;;;;;;;4.17;3.87;;;18.40;99.90;;;;;;4914426;29;20976;-67
2023/07/23 09:50:46;;;;;;;5.73;5.20;;;18.40;99.90;;;;;;4914282;29;20585;-66
2023/07/23 09:53:15;;;;;;;5.07;4.77;;;18.60;99.90;;;;;;4914334;29;20466;-67
2023/07/23 09:55:43;;;;;;;5.80;5.30;;;18.60;99.90;;;;;;4914098;29;21071;-67
2023/07/23 09:58:11;;;;;;;4.17;3.27;;;18.60;99.90;;;;;;4914666;29;20471;-67
2023/07/23 10:00:41;;;;;;;4.67;4.47;;;18.70;99.90;;;;;;4914246;29;20500;-68
2023/07/23 10:03:08;;;;;;;3.50;3.20;;;18.80;99.90;;;;;;4914119;29;20478;-68
2023/07/23 10:05:37;;;;;;;3.40;3.23;;;18.80;99.90;;;;;;4913568;29;20470;-67
2023/07/23 10:08:04;;;;;;;5.80;3.63;;;18.80;99.90;;;;;;4913861;29;20478;-68
2023/07/23 10:10:31;;;;;;;6.63;4.30;;;18.90;99.90;;;;;;4914129;29;20502;-67
2023/07/23 10:12:59;;;;;;;3.10;2.93;;;18.90;99.90;;;;;;4913825;29;20529;-67
2023/07/23 10:15:26;;;;;;;3.27;3.10;;;19.00;99.90;;;;;;4914175;29;20496;-68
2023/07/23 10:17:59;;;;;;;4.00;3.47;;;19.10;99.90;;;;;;4913996;29;20475;-69
2023/07/23 10:20:28;;;;;;;2.80;2.63;;;19.10;99.90;;;;;;4913080;29;20496;-69
2023/07/23 10:22:56;;;;;;;3.00;2.90;;;19.20;99.90;;;;;;4913994;29;20467;-69
2023/07/23 10:25:25;;;;;;;5.80;3.17;;;19.20;99.90;;;;;;4913751;29;20638;-69
2023/07/23 10:28:00;;;;;;;3.73;3.63;;;19.20;99.90;;;;;;4914139;29;20542;-69
2023/07/23 10:30:28;;;;;;;3.20;3.00;;;19.20;99.90;;;;;;4914058;29;20468;-73
2023/07/23 10:33:30;;;;;;;2.63;2.30;;;19.40;99.90;;;;;;4913819;29;20472;-70
2023/07/23 10:36:04;;;;;;;3.30;3.00;;;19.60;99.90;;;;;;4913213;29;20853;-70
2023/07/23 10:38:32;;;;;;;3.23;3.03;;;19.80;99.90;;;;;;4913905;29;20488;-69
2023/07/23 10:41:00;;;;;;;3.33;3.10;;;19.90;99.90;;;;;;4913762;29;20514;-69
2023/07/23 10:43:38;;;;;;;2.10;2.00;;;20.00;99.90;;;;;;4913632;29;20466;-69
2023/07/23 10:46:06;;;;;;;2.97;2.80;;;20.00;99.90;;;;;;4913882;29;20470;-69
2023/07/23 10:48:46;;;;;;;2.40;2.30;;;20.00;99.90;;;;;;4913939;29;20480;-69
2023/07/23 10:51:14;;;;;;;2.60;2.50;;;20.20;99.90;;;;;;4913069;29;20489;-69
2023/07/23 10:53:42;;;;;;;2.27;2.07;;;20.30;99.90;;;;;;4913389;29;20533;-69
2023/07/23 10:56:27;;;;;;;3.27;3.07;;;20.40;99.90;;;;;;4913917;29;20498;-70
2023/07/23 10:58:59;;;;;;;2.40;2.30;;;20.60;99.90;;;;;;4914100;29;20470;-69
2023/07/23 11:01:27;;;;;;;2.07;2.07;;;20.80;99.90;;;;;;4913675;29;20509;-70
2023/07/23 11:03:59;;;;;;;2.33;2.23;;;20.90;99.90;;;;;;4913585;29;20561;-69
2023/07/23 11:06:30;;;;;;;5.63;2.43;;;20.90;99.90;;;;;;4912778;29;20472;-69
2023/07/23 11:08:59;;;;;;;3.03;2.80;;;20.90;99.90;;;;;;4913509;29;20546;-68
2023/07/23 11:11:32;;;;;;;2.10;2.00;;;20.90;99.90;;;;;;4913385;29;20495;-68
2023/07/23 11:13:58;;;;;;;2.63;2.53;;;20.90;99.90;;;;;;4913477;29;20466;-70
2023/07/23 11:16:26;;;;;;;2.40;2.30;;;20.90;99.90;;;;;;4913582;29;21099;-68
2023/07/23 11:18:54;;;;;;;1.57;1.57;;;21.00;99.90;;;;;;4913310;29;20467;-67
2023/07/23 11:21:27;;;;;;;1.70;1.70;;;21.10;99.90;;;;;;4913133;29;20701;-69
2023/07/23 11:23:54;;;;;;;1.97;1.87;;;21.20;99.90;;;;;;4913415;29;20467;-69
2023/07/23 11:26:22;;;;;;;2.37;2.37;;;21.30;99.90;;;;;;4913329;29;20805;-69
2023/07/23 11:28:50;;;;;;;1.83;1.83;;;21.40;99.90;;;;;;4913179;29;20550;-70
2023/07/23 11:31:16;;;;;;;2.23;2.13;;;21.40;99.90;;;;;;4912875;29;20503;-69
2023/07/23 11:33:43;;;;;;;1.60;1.60;;;21.40;99.90;;;;;;4913481;29;20478;-69
2023/07/23 11:36:10;;;;;;;1.67;1.67;;;21.30;99.90;;;;;;4912240;29;20837;-68
2023/07/23 11:38:38;;;;;;;2.17;2.10;;;21.20;99.90;;;;;;4913199;29;20478;-69
2023/07/23 11:41:04;;;;;;;2.53;2.33;;;21.10;99.90;;;;;;4912881;29;21032;-69
2023/07/23 11:43:34;;;;;;;1.60;1.50;;;20.90;99.90;;;;;;4913171;29;20493;-69
2023/07/23 11:46:01;;;;;;;1.70;1.70;;;20.80;99.90;;;;;;4913514;29;20509;-68
2023/07/23 11:48:28;;;;;;;2.40;2.30;;;20.70;99.90;;;;;;4916503;29;20476;-68
2023/07/23 11:50:55;;;;;;;1.90;1.80;;;20.50;99.90;;;;;;4915949;29;20489;-70
2023/07/23 11:53:33;;;;;;;1.53;1.53;;;20.30;99.90;;;;;;4916669;29;20500;-70
2023/07/23 11:56:09;;;;;;;4.70;2.63;;;20.00;99.90;;;;;;4916428;29;20519;-72
2023/07/23 11:58:37;;;;;;;2.57;2.47;;;19.90;99.90;;;;;;4916990;29;20478;-70
2023/07/23 12:01:05;;;;;;;1.77;1.63;;;19.80;99.90;;;;;;4916561;29;20510;-71
2023/07/23 12:03:34;;;;;;;2.13;1.77;;;19.70;99.90;;;;;;4917038;29;20473;-71
2023/07/23 12:06:01;;;;;;;2.73;1.97;;;19.60;99.90;;;;;;4915827;29;20518;-69
2023/07/23 12:08:29;;;;;;;2.90;2.70;;;19.50;99.90;;;;;;4916541;29;20549;-70
2023/07/23 12:10:57;;;;;;;2.17;2.17;;;19.50;99.90;;;;;;4916324;29;20566;-71
2023/07/23 12:13:26;;;;;;;1.60;1.50;;;19.50;99.90;;;;;;4916881;29;20497;-69
2023/07/23 12:15:57;;;;;;;1.77;1.77;;;19.50;99.90;;;;;;4916632;29;20491;-73
2023/07/23 12:18:27;;;;;;;2.10;1.73;;;19.50;99.90;;;;;;4917034;29;20467;-71
2023/07/23 12:20:58;;;;;;;1.67;1.67;;;19.50;99.90;;;;;;4915766;29;20978;-72
2023/07/23 12:23:26;;;;;;;2.90;2.70;;;19.40;99.90;;;;;;4916534;29;20486;-71
2023/07/23 12:25:52;;;;;;;1.33;1.33;;;19.40;99.90;;;;;;4916254;29;20517;-72
2023/07/23 12:28:19;;;;;;;2.97;1.83;;;19.50;99.90;;;;;;4916321;29;20966;-69
2023/07/23 12:30:47;;;;;;;2.67;2.50;;;19.50;99.90;;;;;;4916135;29;20491;-70
2023/07/23 12:33:14;;;;;;;2.43;2.30;;;19.50;99.90;;;;;;4916300;29;20543;-71
2023/07/23 12:35:41;;;;;;;2.13;2.00;;;19.60;99.90;;;;;;4916276;29;20489;-70
2023/07/23 12:38:07;;;;;;;1.57;1.50;;;19.70;99.90;;;;;;4917261;29;20488;-70
2023/07/23 12:40:34;;;;;;;2.17;2.07;;;19.90;99.90;;;;;;4912947;29;20550;-70
2023/07/23 12:43:00;;;;;;;2.70;2.60;;;20.00;99.90;;;;;;4915976;29;20466;-70
2023/07/23 12:45:27;;;;;;;8.63;3.20;;;20.30;99.90;;;;;;4915724;29;20498;-69
2023/07/23 12:47:55;;;;;;;1.83;1.70;;;20.50;99.90;;;;;;4915822;29;20470;-70
2023/07/23 12:50:22;;;;;;;2.00;1.90;;;20.70;99.90;;;;;;4914865;29;20964;-70
2023/07/23 12:52:48;;;;;;;2.10;2.00;;;20.80;99.90;;;;;;4915804;29;20961;-70
2023/07/23 12:55:15;;;;;;;2.43;2.23;;;20.70;99.90;;;;;;4915270;29;20977;-72
2023/07/23 12:57:42;;;;;;;2.70;2.60;;;20.60;99.90;;;;;;4914420;29;20546;-69
2023/07/23 13:00:10;;;;;;;1.77;1.67;;;20.70;99.90;;;;;;4915781;29;20478;-69
2023/07/23 13:02:36;;;;;;;1.63;1.53;;;20.70;99.90;;;;;;4915326;29;20504;-70
2023/07/23 13:05:05;;;;;;;1.73;1.63;;;20.70;99.90;;;;;;4914246;29;20475;-70
2023/07/23 13:07:32;;;;;;;2.93;2.70;;;20.60;99.90;;;;;;4915572;29;20573;-69
2023/07/23 13:09:58;;;;;;;2.20;2.20;;;20.50;99.90;;;;;;4915269;29;20951;-70
2023/07/23 13:12:25;;;;;;;1.70;1.70;;;20.60;99.90;;;;;;4915254;29;21089;-69
2023/07/23 13:14:52;;;;;;;2.00;1.90;;;20.80;99.90;;;;;;4915111;29;20494;-70
2023/07/23 13:17:18;;;;;;;2.10;2.00;;;21.00;99.90;;;;;;4915130;29;20498;-69
2023/07/23 13:19:45;;;;;;;2.07;1.97;;;21.10;99.90;;;;;;4914429;29;20475;-71
2023/07/23 13:22:13;;;;;;;1.70;1.67;;;21.00;99.90;;;;;;4915189;29;21029;-70
2023/07/23 13:24:40;;;;;;;1.90;1.80;;;21.20;99.90;;;;;;4914841;29;21175;-70
2023/07/23 13:27:07;;;;;;;1.80;1.60;;;21.30;99.90;;;;;;4915172;29;20469;-70
2023/07/23 13:29:33;;;;;;;1.40;1.40;;;21.40;99.90;;;;;;4915005;29;20477;-70
2023/07/23 13:32:00;;;;;;;3.03;1.90;;;21.50;99.90;;;;;;4915308;29;20494;-70
2023/07/23 13:34:27;;;;;;;1.53;1.53;;;21.60;99.90;;;;;;4914320;29;20475;-70
2023/07/23 13:36:53;;;;;;;1.60;1.60;;;21.60;99.90;;;;;;4915257;29;20579;-71
2023/07/23 13:39:21;;;;;;;2.10;2.10;;;21.70;99.90;;;;;;4912938;29;20475;-71
2023/07/23 13:41:48;;;;;;;1.50;1.50;;;21.70;99.90;;;;;;4914965;29;20544;-71
2023/07/23 13:44:15;;;;;;;2.13;2.03;;;21.60;99.90;;;;;;4914587;29;20518;-69
2023/07/23 13:46:41;;;;;;;1.30;1.30;;;21.50;99.90;;;;;;4914670;29;20470;-70
2023/07/23 13:49:08;;;;;;;1.70;1.60;;;21.40;99.90;;;;;;4915493;29;20794;-71
2023/07/23 13:51:35;;;;;;;4.30;2.30;;;21.20;99.90;;;;;;4914940;29;20490;-70
2023/07/23 13:54:01;;;;;;;2.00;1.90;;;21.20;99.90;;;;;;4915352;29;20534;-70
2023/07/23 13:56:29;;;;;;;0.90;0.90;;;21.20;99.90;;;;;;4914666;29;20562;-70
2023/07/23 13:58:56;;;;;;;1.03;1.03;;;21.30;99.90;;;;;;4915277;29;20468;-70
2023/07/23 14:01:23;;;;;;;1.30;1.30;;;21.60;99.90;;;;;;4914065;29;20554;-70
2023/07/23 14:03:49;;;;;;;1.50;1.50;;;21.60;99.90;;;;;;4914749;29;20471;-70
2023/07/23 14:06:16;;;;;;;1.57;1.57;;;21.60;99.90;;;;;;4913918;29;20463;-71
2023/07/23 14:08:43;;;;;;;1.20;1.20;;;21.60;99.90;;;;;;4914388;29;20473;-69
2023/07/23 14:11:10;;;;;;;1.70;1.70;;;21.60;99.90;;;;;;4914715;29;20490;-69
2023/07/23 14:13:38;;;;;;;2.03;1.60;;;21.70;99.90;;;;;;4914266;29;20519;-69
2023/07/23 14:16:05;;;;;;;1.23;1.23;;;21.70;99.90;;;;;;4914259;29;20490;-72
2023/07/23 14:18:31;;;;;;;1.27;1.27;;;21.70;99.90;;;;;;4914253;29;20799;-68
2023/07/23 14:20:58;;;;;;;1.40;1.40;;;21.80;99.90;;;;;;4913533;29;20489;-68
2023/07/23 14:23:25;;;;;;;1.10;1.10;;;21.70;99.90;;;;;;4914465;29;20849;-69
2023/07/23 14:25:51;;;;;;;1.83;1.73;;;21.70;99.90;;;;;;4914015;29;20542;-70
2023/07/23 14:28:18;;;;;;;1.17;1.17;;;21.70;99.90;;;;;;4914254;29;20807;-68
2023/07/23 14:30:47;;;;;;;1.20;1.20;;;21.70;99.90;;;;;;4913865;29;20520;-71
2023/07/23 14:33:14;;;;;;;1.43;1.30;;;21.70;99.90;;;;;;4914502;29;20478;-69
2023/07/23 14:35:41;;;;;;;1.10;1.10;;;21.80;99.90;;;;;;4913627;29;20555;-69
2023/07/23 14:38:07;;;;;;;1.33;1.33;;;21.70;99.90;;;;;;4914271;29;20468;-70
2023/07/23 14:40:34;;;;;;;1.27;1.27;;;21.60;99.90;;;;;;4913802;29;20483;-71
2023/07/23 14:43:00;;;;;;;1.40;1.40;;;21.60;99.90;;;;;;4914387;29;20526;-70
2023/07/23 14:45:27;;;;;;;1.17;1.17;;;21.50;99.90;;;;;;4913821;29;20518;-70
2023/07/23 14:47:55;;;;;;;0.93;0.90;;;21.30;99.90;;;;;;4914174;29;20462;-70
2023/07/23 14:50:22;;;;;;;1.17;1.17;;;21.20;99.90;;;;;;4913493;29;20863;-69
2023/07/23 14:52:49;;;;;;;1.17;1.17;;;21.10;99.90;;;;;;4914325;29;20474;-69
2023/07/23 14:55:15;;;;;;;1.20;1.20;;;21.10;99.90;;;;;;4914122;29;20474;-69
2023/07/23 14:57:42;;;;;;;0.83;0.83;;;21.00;99.90;;;;;;4913938;29;20501;-69
2023/07/23 15:00:10;;;;;;;1.00;1.00;;;21.00;99.90;;;;;;4913954;29;20465;-68
2023/07/23 15:02:36;;;;;;;1.37;1.37;;;20.90;99.90;;;;;;4914201;29;20657;-70
2023/07/23 15:05:05;;;;;;;1.40;1.40;;;20.90;99.90;;;;;;4912935;29;20532;-70
2023/07/23 15:07:32;;;;;;;1.37;1.27;;;20.80;99.90;;;;;;4913998;29;20470;-69
2023/07/23 15:09:59;;;;;;;1.20;1.20;;;20.80;99.90;;;;;;4913608;29;20554;-68
2023/07/23 15:12:27;;;;;;;1.70;1.60;;;20.80;99.90;;;;;;4913890;29;20494;-69
2023/07/23 15:14:54;;;;;;;3.20;1.70;;;20.80;99.90;;;;;;4913916;29;20891;-69
2023/07/23 15:17:21;;;;;;;1.43;1.43;;;20.80;99.90;;;;;;4913692;29;20494;-70
2023/07/23 15:19:48;;;;;;;1.30;1.30;;;20.80;99.90;;;;;;4914160;29;20501;-69
2023/07/23 15:22:17;;;;;;;0.80;0.80;;;20.80;99.90;;;;;;4917344;29;20482;-70
2023/07/23 15:24:44;;;;;;;1.10;1.10;;;20.70;99.90;;;;;;4918490;29;20470;-69
2023/07/23 15:27:14;;;;;;;0.50;0.50;;;20.70;99.90;;;;;;4917963;29;20972;-71
2023/07/23 15:29:43;;;;;;;2.73;1.20;;;20.60;99.90;;;;;;4917782;29;21035;-69
2023/07/23 15:32:10;;;;;;;0.63;0.63;;;20.60;99.90;;;;;;4917313;29;21031;-70
2023/07/23 15:34:37;;;;;;;0.90;0.90;;;20.40;99.90;;;;;;4916565;29;20554;-70
2023/07/23 15:37:04;;;;;;;0.83;0.83;;;20.20;99.90;;;;;;4917260;29;20864;-69
2023/07/23 15:39:33;;;;;;;1.10;1.10;;;20.20;99.90;;;;;;4917616;29;20472;-69
2023/07/23 15:42:00;;;;;;;0.90;0.90;;;20.20;99.90;;;;;;4917155;29;20566;-68
2023/07/23 15:44:27;;;;;;;1.63;1.53;;;20.20;99.90;;;;;;4917124;29;20539;-70
2023/07/23 15:46:54;;;;;;;1.50;1.50;;;20.20;99.90;;;;;;4917626;29;20493;-68
2023/07/23 15:49:20;;;;;;;0.80;0.80;;;20.30;99.90;;;;;;4916113;29;20531;-69
2023/07/23 15:51:47;;;;;;;0.87;0.87;;;20.30;99.90;;;;;;4916807;29;20492;-70
2023/07/23 15:54:14;;;;;;;1.10;1.10;;;20.30;99.90;;;;;;4916712;29;21028;-71
2023/07/23 15:56:42;;;;;;;0.57;0.57;;;20.30;99.90;;;;;;4917071;29;20497;-71
2023/07/23 15:59:09;;;;;;;1.20;1.20;;;20.40;99.90;;;;;;4918210;29;20816;-70
2023/07/23 16:01:35;;;;;;;1.43;1.10;;;20.30;99.90;;;;;;4917312;29;20497;-71
2023/07/23 16:04:02;;;;;;;1.30;1.30;;;20.40;99.90;;;;;;4917419;29;20902;-69
2023/07/23 16:06:29;;;;;;;1.47;1.47;;;20.40;99.90;;;;;;4916679;29;20811;-72
2023/07/23 16:08:56;;;;;;;0.87;0.87;;;20.40;99.90;;;;;;4917528;29;20653;-70
2023/07/23 16:11:23;;;;;;;1.03;1.03;;;20.30;99.90;;;;;;4917631;29;20563;-69
2023/07/23 16:13:51;;;;;;;0.70;0.70;;;20.30;99.90;;;;;;4918111;29;20842;-69
2023/07/23 16:16:17;;;;;;;0.90;0.90;;;20.30;99.90;;;;;;4931225;23;20563;-71
2023/07/23 16:18:44;;;;;;;0.57;0.57;;;20.20;99.90;;;;;;4917518;29;20496;-71
2023/07/23 16:21:11;;;;;;;0.87;0.87;;;20.10;99.90;;;;;;4916298;29;20477;-71
2023/07/23 16:23:37;;;;;;;1.00;1.00;;;20.10;99.90;;;;;;4917590;29;20481;-71
2023/07/23 16:26:04;;;;;;;1.00;1.00;;;20.00;99.90;;;;;;4901997;29;20560;-71
2023/07/23 16:28:31;;;;;;;0.53;0.53;;;20.00;99.90;;;;;;4898543;29;20834;-72
2023/07/23 16:30:59;;;;;;;0.80;0.80;;;19.90;99.90;;;;;;4897491;29;20477;-72
2023/07/23 16:33:26;;;;;;;0.40;0.40;;;19.90;99.90;;;;;;4897011;29;20582;-72
2023/07/23 16:35:54;;;;;;;1.00;1.00;;;19.90;99.90;;;;;;4896122;29;20498;-71
2023/07/23 16:38:25;;;;;;;0.60;0.60;;;19.90;99.90;;;;;;4897198;29;20590;-71
2023/07/23 16:40:53;;;;;;;0.50;0.50;;;19.80;99.90;;;;;;4897117;29;20552;-72
2023/07/23 16:43:19;;;;;;;0.50;0.50;;;19.90;99.90;;;;;;4897305;29;20528;-71
2023/07/23 16:45:47;;;;;;;1.03;1.03;;;20.00;99.90;;;;;;4896728;29;21012;-72
2023/07/23 16:48:15;;;;;;;0.80;0.80;;;20.00;99.90;;;;;;4897200;29;20470;-72
2023/07/23 16:50:42;;;;;;;0.50;0.50;;;20.00;99.90;;;;;;4902013;29;20477;-72